Time;durP1;ratioP1;P1;durP2;ratioP2;P2;SDS_P1;SDS_P2;PMS_P1;PMS_P2;Temp;Humidity;BMP_temperature;BMP_pressure;BME280_temperature;BME280_humidity;BME280_pressure;Samples;Min_cycle;Max_cycle;Signal;HPM_P1;HPM_P2
2023/09/20 00:01:56;;;;;;;0.50;0.50;;;;;;;;;;4952652;28;20096;-63
2023/09/20 00:04:22;;;;;;;0.50;0.50;;;;;;;;;;4956106;28;20050;-63
2023/09/20 00:06:47;;;;;;;0.50;0.50;;;;;;;;;;4962340;28;20038;-64
2023/09/20 00:09:14;;;;;;;0.40;0.40;;;;;;;;;;4956040;28;20035;-66
2023/09/20 00:11:40;;;;;;;0.50;0.50;;;;;;;;;;4956549;28;20058;-63
2023/09/20 00:14:05;;;;;;;0.50;0.50;;;;;;;;;;4958688;28;20027;-65
2023/09/20 00:16:31;;;;;;;0.40;0.40;;;;;;;;;;4958058;28;20030;-64
2023/09/20 00:18:56;;;;;;;0.40;0.40;;;;;;;;;;4958604;28;20035;-63
2023/09/20 00:21:23;;;;;;;0.50;0.50;;;;;;;;;;4956820;28;20047;-64
2023/09/20 00:23:49;;;;;;;0.40;0.40;;;;;;;;;;4960091;28;20034;-65
2023/09/20 00:26:14;;;;;;;0.50;0.50;;;;;;;;;;4956490;28;20038;-64
2023/09/20 00:28:43;;;;;;;0.40;0.40;;;;;;;;;;4958953;28;20536;-63
2023/09/20 00:31:09;;;;;;;0.50;0.50;;;;;;;;;;4956619;28;20066;-63
2023/09/20 00:33:34;;;;;;;0.40;0.40;;;;;;;;;;4957942;28;20133;-64
2023/09/20 00:36:01;;;;;;;0.50;0.50;;;;;;;;;;4958376;28;20059;-62
2023/09/20 00:38:26;;;;;;;0.50;0.50;;;;;;;;;;4960571;28;20110;-64
2023/09/20 00:40:52;;;;;;;0.40;0.40;;;;;;;;;;4958599;28;20432;-64
2023/09/20 00:43:24;;;;;;;0.50;0.50;;;;;;;;;;4953895;28;20034;-64
2023/09/20 00:45:50;;;;;;;0.40;0.40;;;;;;;;;;4956251;28;20033;-65
2023/09/20 00:48:16;;;;;;;0.40;0.40;;;;;;;;;;4956939;28;20027;-65
2023/09/20 00:50:43;;;;;;;0.50;0.50;;;;;;;;;;4957893;28;20116;-65
2023/09/20 00:53:11;;;;;;;;;;;;;;;;;;4956133;28;20100;-64
2023/09/20 00:55:37;;;;;;;0.50;0.50;;;;;;;;;;4954873;28;19918;-64
2023/09/20 00:58:06;;;;;;;0.40;0.40;;;;;;;;;;4960418;28;20037;-64
2023/09/20 01:00:33;;;;;;;0.40;0.40;;;;;;;;;;4958985;28;20507;-64
2023/09/20 01:03:00;;;;;;;0.50;0.50;;;;;;;;;;4960512;23;20057;-62
2023/09/20 01:05:26;;;;;;;0.50;0.50;;;;;;;;;;4937677;28;20505;-63
2023/09/20 01:07:54;;;;;;;0.45;0.45;;;;;;;;;;4942544;28;20043;-61
2023/09/20 01:10:23;;;;;;;0.40;0.40;;;;;;;;;;4943888;28;20057;-61
2023/09/20 01:12:51;;;;;;;0.40;0.40;;;;;;;;;;4942856;28;20066;-64
2023/09/20 01:15:16;;;;;;;0.50;0.50;;;;;;;;;;4952709;28;20073;-62
2023/09/20 01:17:45;;;;;;;0.50;0.50;;;;;;;;;;4940962;28;20429;-59
2023/09/20 01:20:18;;;;;;;0.50;0.50;;;;;;;;;;4942250;28;20027;-59
2023/09/20 01:22:44;;;;;;;0.50;0.50;;;;;;;;;;4923077;28;20039;-61
2023/09/20 01:25:11;;;;;;;0.40;0.40;;;;;;;;;;4945221;28;20461;-60
2023/09/20 01:27:38;;;;;;;0.50;0.50;;;;;;;;;;4944921;28;20035;-59
2023/09/20 01:30:04;;;;;;;0.43;0.43;;;;;;;;;;4945572;28;20032;-62
2023/09/20 01:32:32;;;;;;;0.40;0.40;;;;;;;;;;4941771;28;20187;-63
2023/09/20 01:34:58;;;;;;;0.50;0.50;;;;;;;;;;4937810;28;20433;-60
2023/09/20 01:37:23;;;;;;;0.40;0.40;;;;;;;;;;4938245;28;20035;-60
2023/09/20 01:39:49;;;;;;;0.50;0.50;;;;;;;;;;4935692;28;20033;-61
2023/09/20 01:42:17;;;;;;;0.40;0.40;;;;;;;;;;4938783;28;20034;-59
2023/09/20 01:44:42;;;;;;;0.40;0.40;;;;;;;;;;4937275;28;20039;-60
2023/09/20 01:47:07;;;;;;;0.40;0.40;;;;;;;;;;4936798;28;20027;-61
2023/09/20 01:49:34;;;;;;;0.45;0.45;;;;;;;;;;4922511;28;20040;-60
2023/09/20 01:52:00;;;;;;;0.50;0.50;;;;;;;;;;4939214;29;20102;-61
2023/09/20 01:54:28;;;;;;;0.50;0.50;;;;;;;;;;4936834;28;20110;-61
2023/09/20 01:56:55;;;;;;;0.50;0.50;;;;;;;;;;4941199;28;20126;-62
2023/09/20 01:59:21;;;;;;;0.50;0.50;;;;;;;;;;4944648;29;20038;-61
2023/09/20 02:01:48;;;;;;;0.50;0.50;;;;;;;;;;4941630;28;20035;-61
2023/09/20 02:04:20;;;;;;;0.40;0.40;;;;;;;;;;4938521;28;20501;-60
2023/09/20 02:06:46;;;;;;;0.40;0.40;;;;;;;;;;4941972;28;20524;-61
2023/09/20 02:09:12;;;;;;;0.40;0.40;;;;;;;;;;4943633;28;20047;-59
2023/09/20 02:11:37;;;;;;;0.50;0.50;;;;;;;;;;4943997;28;20043;-60
2023/09/20 02:14:02;;;;;;;0.40;0.40;;;;;;;;;;4941998;28;20099;-60
2023/09/20 02:16:28;;;;;;;0.50;0.50;;;;;;;;;;4941037;28;20023;-61
2023/09/20 02:18:54;;;;;;;0.50;0.50;;;;;;;;;;4942869;28;20062;-60
2023/09/20 02:21:21;;;;;;;0.40;0.40;;;;;;;;;;4941351;29;20474;-60
2023/09/20 02:23:46;;;;;;;0.52;0.52;;;;;;;;;;4940287;28;20138;-62
2023/09/20 02:26:12;;;;;;;0.50;0.50;;;;;;;;;;4944212;28;20205;-62
2023/09/20 02:28:38;;;;;;;0.40;0.40;;;;;;;;;;4940870;29;20027;-60
2023/09/20 02:31:03;;;;;;;0.50;0.50;;;;;;;;;;4943231;28;20036;-60
2023/09/20 02:33:28;;;;;;;0.40;0.40;;;;;;;;;;4939056;28;20047;-60
2023/09/20 02:35:57;;;;;;;0.40;0.40;;;;;;;;;;4927782;29;20031;-60
2023/09/20 02:38:22;;;;;;;0.50;0.50;;;;;;;;;;4942172;28;20338;-59
2023/09/20 02:40:50;;;;;;;0.50;0.50;;;;;;;;;;4939635;28;20028;-59
2023/09/20 02:43:16;;;;;;;0.50;0.50;;;;;;;;;;4927326;28;20390;-61
2023/09/20 02:45:45;;;;;;;0.50;0.50;;;;;;;;;;4945923;28;20031;-60
2023/09/20 02:48:10;;;;;;;0.50;0.50;;;;;;;;;;4935537;28;20032;-59
2023/09/20 02:50:37;;;;;;;0.40;0.40;;;;;;;;;;4939549;28;20086;-60
2023/09/20 02:53:03;;;;;;;0.40;0.40;;;;;;;;;;4938861;29;20071;-60
2023/09/20 02:55:31;;;;;;;0.50;0.50;;;;;;;;;;4940192;28;20038;-59
2023/09/20 02:57:58;;;;;;;0.50;0.50;;;;;;;;;;4942934;28;20110;-61
2023/09/20 03:00:31;;;;;;;0.50;0.50;;;;;;;;;;4940233;28;20469;-59
2023/09/20 03:03:04;;;;;;;0.50;0.50;;;;;;;;;;4944143;28;20178;-63
2023/09/20 03:05:29;;;;;;;0.50;0.50;;;;;;;;;;4943302;28;20397;-61
2023/09/20 03:07:55;;;;;;;0.47;0.47;;;;;;;;;;4925100;29;20023;-59
2023/09/20 03:10:22;;;;;;;0.50;0.50;;;;;;;;;;4940544;28;20097;-60
2023/09/20 03:12:51;;;;;;;0.50;0.50;;;;;;;;;;4938394;28;20043;-59
2023/09/20 03:15:21;;;;;;;0.50;0.50;;;;;;;;;;4954627;28;20054;-61
2023/09/20 03:17:47;;;;;;;0.50;0.50;;;;;;;;;;4944193;28;20126;-60
2023/09/20 03:20:34;;;;;;;0.50;0.50;;;;;;;;;;4943949;28;20038;-60
2023/09/20 03:23:03;;;;;;;0.50;0.50;;;;;;;;;;4937936;28;20036;-59
2023/09/20 03:25:36;;;;;;;0.50;0.50;;;;;;;;;;4939838;28;20409;-59
2023/09/20 03:28:04;;;;;;;0.50;0.50;;;;;;;;;;4941144;28;20036;-61
2023/09/20 03:30:31;;;;;;;0.50;0.50;;;;;;;;;;4944088;28;20591;-60
2023/09/20 03:32:57;;;;;;;0.50;0.50;;;;;;;;;;4943119;28;20512;-60
2023/09/20 03:35:23;;;;;;;0.60;0.60;;;;;;;;;;4943029;28;20485;-60
2023/09/20 03:37:48;;;;;;;0.50;0.50;;;;;;;;;;4939971;28;20802;-59
2023/09/20 03:40:18;;;;;;;0.50;0.50;;;;;;;;;;4940102;28;20027;-60
2023/09/20 03:42:45;;;;;;;0.50;0.50;;;;;;;;;;4936355;29;20078;-59
2023/09/20 03:45:13;;;;;;;0.40;0.40;;;;;;;;;;4941826;28;20027;-60
2023/09/20 03:47:40;;;;;;;0.50;0.50;;;;;;;;;;4944447;28;20038;-60
2023/09/20 03:50:12;;;;;;;0.50;0.50;;;;;;;;;;4938037;28;20062;-62
2023/09/20 03:52:39;;;;;;;0.50;0.50;;;;;;;;;;4928840;29;20054;-62
2023/09/20 03:55:05;;;;;;;0.50;0.50;;;;;;;;;;4942685;28;20572;-59
2023/09/20 03:57:30;;;;;;;0.50;0.50;;;;;;;;;;4942848;28;20027;-59
2023/09/20 03:59:59;;;;;;;0.50;0.50;;;;;;;;;;4940317;28;20668;-61
2023/09/20 04:02:25;;;;;;;0.50;0.50;;;;;;;;;;4941095;28;20135;-60
2023/09/20 04:04:51;;;;;;;0.52;0.52;;;;;;;;;;4940721;28;20114;-61
2023/09/20 04:07:17;;;;;;;0.50;0.50;;;;;;;;;;4944961;28;20468;-61
2023/09/20 04:09:44;;;;;;;0.50;0.50;;;;;;;;;;4928711;29;20032;-60
2023/09/20 04:12:10;;;;;;;0.50;0.50;;;;;;;;;;4939132;28;20097;-60
2023/09/20 04:14:35;;;;;;;0.45;0.45;;;;;;;;;;4942851;28;20034;-60
2023/09/20 04:17:01;;;;;;;0.50;0.50;;;;;;;;;;4936525;28;20028;-60
2023/09/20 04:19:26;;;;;;;0.50;0.50;;;;;;;;;;4939945;28;20038;-60
2023/09/20 04:21:51;;;;;;;0.50;0.50;;;;;;;;;;4942658;28;20051;-61
2023/09/20 04:24:17;;;;;;;0.50;0.50;;;;;;;;;;4935999;28;20034;-60
2023/09/20 04:26:42;;;;;;;0.50;0.50;;;;;;;;;;4942404;28;20043;-61
2023/09/20 04:29:07;;;;;;;0.50;0.50;;;;;;;;;;4940514;28;20073;-60
2023/09/20 04:31:33;;;;;;;0.50;0.50;;;;;;;;;;4940085;28;20043;-60
2023/09/20 04:34:02;;;;;;;0.45;0.45;;;;;;;;;;4941098;28;20716;-63
2023/09/20 04:36:27;;;;;;;0.50;0.50;;;;;;;;;;4928095;28;20051;-62
2023/09/20 04:38:54;;;;;;;0.50;0.50;;;;;;;;;;4938172;28;20046;-61
2023/09/20 04:41:21;;;;;;;0.50;0.50;;;;;;;;;;4937303;28;20062;-62
2023/09/20 04:43:47;;;;;;;0.50;0.50;;;;;;;;;;4938884;28;20035;-60
2023/09/20 04:46:12;;;;;;;0.50;0.50;;;;;;;;;;4939764;29;20038;-61
2023/09/20 04:48:39;;;;;;;0.50;0.50;;;;;;;;;;4937800;28;20049;-61
2023/09/20 04:51:05;;;;;;;0.52;0.52;;;;;;;;;;4937132;28;20114;-60
2023/09/20 04:53:30;;;;;;;0.50;0.50;;;;;;;;;;4939951;28;20053;-62
2023/09/20 04:55:56;;;;;;;0.50;0.50;;;;;;;;;;4937109;28;20028;-62
2023/09/20 04:58:22;;;;;;;0.50;0.50;;;;;;;;;;4938265;28;20145;-60
2023/09/20 05:00:48;;;;;;;0.50;0.50;;;;;;;;;;4937614;28;20495;-60
2023/09/20 05:03:15;;;;;;;0.60;0.60;;;;;;;;;;4935982;28;20038;-62
2023/09/20 05:05:43;;;;;;;0.50;0.50;;;;;;;;;;4938420;28;20278;-59
2023/09/20 05:08:09;;;;;;;0.50;0.50;;;;;;;;;;4942264;28;20474;-60
2023/09/20 05:10:34;;;;;;;0.50;0.50;;;;;;;;;;4936179;28;20043;-61
2023/09/20 05:13:01;;;;;;;0.55;0.55;;;;;;;;;;4937829;28;20045;-61
2023/09/20 05:15:27;;;;;;;0.50;0.50;;;;;;;;;;4937379;28;20497;-60
2023/09/20 05:17:52;;;;;;;0.50;0.50;;;;;;;;;;4939860;28;20031;-60
2023/09/20 05:20:18;;;;;;;0.50;0.50;;;;;;;;;;4944473;28;20086;-58
2023/09/20 05:22:43;;;;;;;0.50;0.50;;;;;;;;;;4941182;28;20035;-59
2023/09/20 05:25:09;;;;;;;0.43;0.43;;;;;;;;;;4922737;28;20061;-59
2023/09/20 05:27:35;;;;;;;0.50;0.50;;;;;;;;;;4939872;28;20077;-61
2023/09/20 05:30:00;;;;;;;0.50;0.50;;;;;;;;;;4938040;28;20043;-60
2023/09/20 05:32:26;;;;;;;0.50;0.50;;;;;;;;;;4939367;28;20035;-63
2023/09/20 05:34:51;;;;;;;0.50;0.50;;;;;;;;;;4938528;28;20035;-61
2023/09/20 05:37:17;;;;;;;0.47;0.47;;;;;;;;;;4939667;28;20031;-63
2023/09/20 05:39:48;;;;;;;0.50;0.50;;;;;;;;;;4936658;28;20047;-63
2023/09/20 05:42:16;;;;;;;0.50;0.50;;;;;;;;;;4933846;28;20098;-64
2023/09/20 05:44:41;;;;;;;0.50;0.50;;;;;;;;;;4934244;28;20042;-60
2023/09/20 05:47:08;;;;;;;0.50;0.50;;;;;;;;;;4937959;28;20032;-60
2023/09/20 05:49:33;;;;;;;0.50;0.50;;;;;;;;;;4937385;28;20126;-60
2023/09/20 05:52:00;;;;;;;0.50;0.50;;;;;;;;;;4937647;28;20039;-59
2023/09/20 05:54:25;;;;;;;0.50;0.50;;;;;;;;;;4934976;28;20066;-60
2023/09/20 05:56:51;;;;;;;0.50;0.50;;;;;;;;;;4938820;28;20314;-61
2023/09/20 05:59:16;;;;;;;0.50;0.50;;;;;;;;;;4940848;28;20028;-61
2023/09/20 06:01:42;;;;;;;0.40;0.40;;;;;;;;;;4939845;28;20031;-61
2023/09/20 06:04:10;;;;;;;0.50;0.50;;;;;;;;;;4937436;29;20036;-60
2023/09/20 06:06:37;;;;;;;0.40;0.40;;;;;;;;;;4937031;29;20480;-59
2023/09/20 06:09:03;;;;;;;0.40;0.40;;;;;;;;;;4935261;28;20115;-60
2023/09/20 06:11:28;;;;;;;0.40;0.40;;;;;;;;;;4937106;29;20126;-62
2023/09/20 06:13:54;;;;;;;0.40;0.40;;;;;;;;;;4934950;29;20449;-61
2023/09/20 06:16:19;;;;;;;0.43;0.43;;;;;;;;;;4934790;29;20038;-62
2023/09/20 06:18:46;;;;;;;0.47;0.47;;;;;;;;;;4936275;29;20059;-62
2023/09/20 06:21:11;;;;;;;0.40;0.40;;;;;;;;;;4937157;29;20470;-62
2023/09/20 06:23:38;;;;;;;0.40;0.40;;;;;;;;;;4940395;28;20050;-62
2023/09/20 06:26:04;;;;;;;0.40;0.40;;;;;;;;;;4938627;28;20039;-61
2023/09/20 06:28:31;;;;;;;0.40;0.40;;;;;;;;;;4937375;28;20430;-61
2023/09/20 06:30:57;;;;;;;0.40;0.40;;;;;;;;;;4935743;29;20645;-61
2023/09/20 06:33:23;;;;;;;0.40;0.40;;;;;;;;;;4939906;29;20043;-63
2023/09/20 06:35:49;;;;;;;0.40;0.40;;;;;;;;;;4935139;29;20606;-62
2023/09/20 06:38:15;;;;;;;0.30;0.30;;;;;;;;;;4939330;28;20474;-62
2023/09/20 06:40:40;;;;;;;0.40;0.40;;;;;;;;;;4937935;29;20027;-62
2023/09/20 06:43:07;;;;;;;0.30;0.30;;;;;;;;;;4939706;29;20047;-60
2023/09/20 06:45:33;;;;;;;0.40;0.40;;;;;;;;;;4941344;29;20035;-62
2023/09/20 06:47:58;;;;;;;0.30;0.30;;;;;;;;;;4940021;29;20493;-61
2023/09/20 06:50:23;;;;;;;0.30;0.30;;;;;;;;;;4940178;29;20035;-61
2023/09/20 06:52:51;;;;;;;0.30;0.30;;;;;;;;;;4938354;29;20043;-61
2023/09/20 06:55:18;;;;;;;0.30;0.30;;;;;;;;;;4945825;29;20478;-61
2023/09/20 06:57:47;;;;;;;0.30;0.30;;;;;;;;;;4937127;28;20990;-62
2023/09/20 07:00:21;;;;;;;0.30;0.30;;;;;;;;;;4937421;29;20042;-61
2023/09/20 07:02:46;;;;;;;0.30;0.30;;;;;;;;;;4940847;29;20067;-62
2023/09/20 07:05:13;;;;;;;0.22;0.22;;;;;;;;;;4937722;29;20110;-62
2023/09/20 07:07:39;;;;;;;0.30;0.30;;;;;;;;;;4941720;29;20363;-60
2023/09/20 07:10:05;;;;;;;0.30;0.30;;;;;;;;;;4942717;29;20119;-60
2023/09/20 07:12:33;;;;;;;0.20;0.20;;;;;;;;;;4940845;29;20131;-60
2023/09/20 07:14:59;;;;;;;0.30;0.30;;;;;;;;;;4938814;29;20095;-61
2023/09/20 07:17:24;;;;;;;0.20;0.20;;;;;;;;;;4946251;28;20039;-61
2023/09/20 07:19:51;;;;;;;0.20;0.20;;;;;;;;;;4939146;29;20536;-61
2023/09/20 07:22:17;;;;;;;0.20;0.20;;;;;;;;;;4940313;29;20553;-60
2023/09/20 07:24:45;;;;;;;0.20;0.20;;;;;;;;;;4941651;29;20039;-61
2023/09/20 07:27:11;;;;;;;0.20;0.20;;;;;;;;;;4940267;29;20035;-61
2023/09/20 07:29:37;;;;;;;0.20;0.20;;;;;;;;;;4944124;29;20058;-62
2023/09/20 07:32:04;;;;;;;0.20;0.20;;;;;;;;;;4941783;28;20425;-61
2023/09/20 07:34:33;;;;;;;0.20;0.20;;;;;;;;;;4940045;29;20094;-61
2023/09/20 07:36:59;;;;;;;0.20;0.20;;;;;;;;;;4939415;29;20106;-62
2023/09/20 07:39:25;;;;;;;0.20;0.20;;;;;;;;;;4939833;29;20036;-60
2023/09/20 07:41:50;;;;;;;0.10;0.10;;;;;;;;;;4938354;29;20411;-60
2023/09/20 07:44:24;;;;;;;0.13;0.13;;;;;;;;;;4945682;29;20043;-61
2023/09/20 07:46:53;;;;;;;0.20;0.20;;;;;;;;;;4942504;29;20120;-62
2023/09/20 07:49:19;;;;;;;0.10;0.10;;;;;;;;;;4939217;29;20094;-61
2023/09/20 07:51:45;;;;;;;0.20;0.20;;;;;;;;;;4938427;28;20102;-60
2023/09/20 07:54:10;;;;;;;0.20;0.20;;;;;;;;;;4939734;29;20039;-60
2023/09/20 07:56:36;;;;;;;0.10;0.10;;;;;;;;;;4937679;28;20070;-60
2023/09/20 07:59:03;;;;;;;0.10;0.10;;;;;;;;;;4942905;28;20038;-62
2023/09/20 08:01:29;;;;;;;0.10;0.10;;;;;;;;;;4939430;28;20481;-60
2023/09/20 08:03:58;;;;;;;0.10;0.10;;;;;;;;;;4937909;29;20046;-62
2023/09/20 08:06:33;;;;;;;0.10;0.10;;;;;;;;;;4938519;29;20054;-59
2023/09/20 08:08:58;;;;;;;0.10;0.10;;;;;;;;;;4940918;29;20035;-62
2023/09/20 08:11:24;;;;;;;0.10;0.10;;;;;;;;;;4937256;29;20763;-60
2023/09/20 08:13:50;;;;;;;0.10;0.10;;;;;;;;;;4936814;29;20087;-62
2023/09/20 08:16:16;;;;;;;0.10;0.10;;;;;;;;;;4946609;29;20043;-62
2023/09/20 08:21:26;;;;;;;0.10;0.10;;;;;;;;;;4942400;29;20038;-61
2023/09/20 09:02:15;;;;;;;0.10;0.10;;;;;;;;;;4938989;29;20038;-61
2023/09/20 09:04:44;;;;;;;0.00;0.00;;;;;;;;;;4942404;29;20059;-61
2023/09/20 09:07:10;;;;;;;0.10;0.10;;;;;;;;;;4939070;29;20031;-61
2023/09/20 09:09:36;;;;;;;0.10;0.10;;;;;;;;;;4938180;28;20031;-60
2023/09/20 09:12:01;;;;;;;0.10;0.10;;;;;;;;;;4937730;29;20055;-61
2023/09/20 09:14:27;;;;;;;0.10;0.10;;;;;;;;;;4940051;29;20498;-61
2023/09/20 09:17:00;;;;;;;0.10;0.10;;;;;;;;;;4937198;29;20366;-59
2023/09/20 09:19:25;;;;;;;0.10;0.10;;;;;;;;;;4935866;29;20532;-66
2023/09/20 09:21:50;;;;;;;0.10;0.10;;;;;;;;;;4937873;28;20118;-60
2023/09/20 09:24:16;;;;;;;0.10;0.10;;;;;;;;;;4934441;28;20031;-60
2023/09/20 09:26:42;;;;;;;0.10;0.10;;;;;;;;;;4922586;29;20094;-61
2023/09/20 09:29:07;;;;;;;0.10;0.10;;;;;;;;;;4936905;28;20036;-60
2023/09/20 09:31:32;;;;;;;0.10;0.10;;;;;;;;;;4937786;29;20034;-60
2023/09/20 09:33:59;;;;;;;0.00;0.00;;;;;;;;;;4937246;29;20138;-62
2023/09/20 09:36:25;;;;;;;0.10;0.10;;;;;;;;;;4933583;28;20030;-63
2023/09/20 09:38:50;;;;;;;0.00;0.00;;;;;;;;;;4928239;28;20040;-62
2023/09/20 09:41:18;;;;;;;0.03;0.03;;;;;;;;;;4937663;28;20745;-60
2023/09/20 09:43:55;;;;;;;0.10;0.10;;;;;;;;;;4930938;29;20036;-64
2023/09/20 09:46:20;;;;;;;0.10;0.10;;;;;;;;;;4936959;28;20667;-60
2023/09/20 09:48:46;;;;;;;0.10;0.10;;;;;;;;;;4938807;28;20023;-61
2023/09/20 09:51:13;;;;;;;0.10;0.10;;;;;;;;;;4935799;28;20031;-60
2023/09/20 09:53:39;;;;;;;;;;;;;;;;;;4934733;28;20050;-61
2023/09/20 09:56:04;;;;;;;0.10;0.10;;;;;;;;;;4939337;28;19922;-61
2023/09/20 09:58:30;;;;;;;0.10;0.10;;;;;;;;;;4937471;28;20035;-61
2023/09/20 10:00:56;;;;;;;0.03;0.03;;;;;;;;;;4933789;28;20397;-61
2023/09/20 10:03:34;;;;;;;0.10;0.10;;;;;;;;;;4938780;28;20476;-60
2023/09/20 10:06:21;;;;;;;0.10;0.10;;;;;;;;;;4926696;28;20175;-61
2023/09/20 10:08:49;;;;;;;0.10;0.10;;;;;;;;;;4934877;28;20074;-60
2023/09/20 10:11:15;;;;;;;0.10;0.10;;;;;;;;;;4944842;28;20091;-61
2023/09/20 10:13:41;;;;;;;0.10;0.10;;;;;;;;;;4934104;28;20043;-61
2023/09/20 10:16:10;;;;;;;0.10;0.10;;;;;;;;;;4940767;28;20039;-60
2023/09/20 10:18:52;;;;;;;0.10;0.10;;;;;;;;;;4938973;28;20473;-60
2023/09/20 10:21:23;;;;;;;0.10;0.10;;;;;;;;;;4938017;28;20965;-60
2023/09/20 10:23:51;;;;;;;0.10;0.10;;;;;;;;;;4940016;28;20031;-61
2023/09/20 10:26:18;;;;;;;0.10;0.10;;;;;;;;;;4940072;28;20031;-63
2023/09/20 10:28:44;;;;;;;0.10;0.10;;;;;;;;;;4938823;28;20040;-60
2023/09/20 10:31:16;;;;;;;0.00;0.00;;;;;;;;;;4944413;29;20041;-61
2023/09/20 10:33:45;;;;;;;0.10;0.10;;;;;;;;;;4937442;28;20036;-61
2023/09/20 10:36:22;;;;;;;0.05;0.05;;;;;;;;;;4941067;29;20043;-60
2023/09/20 10:38:48;;;;;;;0.05;0.05;;;;;;;;;;4936985;29;20046;-61
2023/09/20 10:41:14;;;;;;;0.10;0.10;;;;;;;;;;4938666;28;20036;-59
2023/09/20 10:43:41;;;;;;;0.10;0.10;;;;;;;;;;4937026;29;20039;-60
2023/09/20 10:46:14;;;;;;;0.10;0.10;;;;;;;;;;4937537;28;20110;-59
2023/09/20 10:48:41;;;;;;;0.10;0.10;;;;;;;;;;4939170;28;20031;-62
2023/09/20 10:51:07;;;;;;;0.10;0.10;;;;;;;;;;4939086;29;20031;-60
2023/09/20 10:53:41;;;;;;;0.10;0.10;;;;;;;;;;4938106;29;20122;-60
2023/09/20 10:56:08;;;;;;;0.10;0.10;;;;;;;;;;4935414;29;20039;-60
2023/09/20 10:58:33;;;;;;;0.10;0.10;;;;;;;;;;4938054;28;20031;-61
2023/09/20 11:00:58;;;;;;;0.10;0.10;;;;;;;;;;4944597;28;20098;-62
2023/09/20 11:03:24;;;;;;;0.10;0.10;;;;;;;;;;4937062;28;20047;-60
2023/09/20 11:05:49;;;;;;;0.10;0.10;;;;;;;;;;4939221;29;20032;-60
2023/09/20 11:08:15;;;;;;;0.10;0.10;;;;;;;;;;4941218;28;20047;-59
2023/09/20 11:10:40;;;;;;;0.10;0.10;;;;;;;;;;4925679;29;20029;-60
2023/09/20 11:13:09;;;;;;;0.10;0.10;;;;;;;;;;4939633;28;20035;-60
2023/09/20 11:15:41;;;;;;;0.10;0.10;;;;;;;;;;4938978;28;20260;-61
2023/09/20 11:18:07;;;;;;;0.10;0.10;;;;;;;;;;4941749;28;20628;-60
2023/09/20 11:20:34;;;;;;;0.10;0.10;;;;;;;;;;4925007;29;20027;-61
2023/09/20 11:22:59;;;;;;;0.00;0.00;;;;;;;;;;4940145;28;20445;-61
2023/09/20 11:25:25;;;;;;;0.00;0.00;;;;;;;;;;4938783;28;20823;-60
2023/09/20 11:27:51;;;;;;;0.00;0.00;;;;;;;;;;4941348;28;20043;-60
2023/09/20 11:30:18;;;;;;;0.00;0.00;;;;;;;;;;4940182;28;20038;-61
2023/09/20 11:32:43;;;;;;;0.00;0.00;;;;;;;;;;4945653;28;20039;-59
2023/09/20 11:35:09;;;;;;;0.00;0.00;;;;;;;;;;4941151;29;20035;-60
2023/09/20 11:37:38;;;;;;;0.00;0.00;;;;;;;;;;4937896;28;20027;-60
2023/09/20 11:40:05;;;;;;;0.00;0.00;;;;;;;;;;4939512;29;20035;-60
2023/09/20 11:42:34;;;;;;;0.00;0.00;;;;;;;;;;4943896;28;20047;-61
2023/09/20 11:45:05;;;;;;;0.00;0.00;;;;;;;;;;4937916;29;20087;-63
2023/09/20 11:47:31;;;;;;;0.00;0.00;;;;;;;;;;4937115;29;20134;-61
2023/09/20 11:49:57;;;;;;;;;;;;;;;;;;4939079;29;20823;-60
2023/09/20 11:52:22;;;;;;;0.00;0.00;;;;;;;;;;4935723;29;19926;-63
2023/09/20 11:54:47;;;;;;;;;;;;;;;;;;4939755;28;20040;-61
2023/09/20 11:57:22;;;;;;;0.00;0.00;;;;;;;;;;4938515;28;19920;-60
2023/09/20 11:59:47;;;;;;;0.00;0.00;;;;;;;;;;4937865;28;20112;-60
2023/09/20 12:02:12;;;;;;;;;;;;;;;;;;4938451;29;20043;-60
2023/09/20 12:04:38;;;;;;;0.00;0.00;;;;;;;;;;4942878;29;20547;-62
2023/09/20 12:07:04;;;;;;;0.00;0.00;;;;;;;;;;4941250;28;20117;-60
2023/09/20 12:09:29;;;;;;;;;;;;;;;;;;4937834;28;20150;-60
2023/09/20 12:11:54;;;;;;;0.00;0.00;;;;;;;;;;4939835;28;20414;-61
2023/09/20 12:14:19;;;;;;;;;;;;;;;;;;4940794;29;20039;-61
2023/09/20 12:16:48;;;;;;;0.00;0.00;;;;;;;;;;4937503;29;19925;-59
2023/09/20 12:19:16;;;;;;;0.00;0.00;;;;;;;;;;4939814;29;20028;-60
2023/09/20 12:21:44;;;;;;;0.00;0.00;;;;;;;;;;4948576;28;20721;-59
2023/09/20 12:24:11;;;;;;;0.00;0.00;;;;;;;;;;4939753;29;20525;-60
2023/09/20 12:26:36;;;;;;;0.00;0.00;;;;;;;;;;4938651;29;20055;-59
2023/09/20 12:29:01;;;;;;;;;;;;;;;;;;4942727;29;20051;-60
2023/09/20 12:31:27;;;;;;;0.00;0.00;;;;;;;;;;4939103;28;19985;-59
2023/09/20 12:33:52;;;;;;;0.00;0.00;;;;;;;;;;4938678;28;20091;-61
2023/09/20 12:36:18;;;;;;;0.00;0.00;;;;;;;;;;4942010;29;20031;-60
2023/09/20 12:38:44;;;;;;;0.00;0.00;;;;;;;;;;4935978;28;20118;-61
2023/09/20 12:41:09;;;;;;;0.00;0.00;;;;;;;;;;4935227;29;20032;-60
2023/09/20 12:43:37;;;;;;;0.00;0.00;;;;;;;;;;4944661;28;20042;-61
2023/09/20 12:46:02;;;;;;;0.00;0.00;;;;;;;;;;4943023;29;20041;-60
2023/09/20 12:48:28;;;;;;;0.00;0.00;;;;;;;;;;4938894;28;20031;-61
2023/09/20 12:50:53;;;;;;;0.00;0.00;;;;;;;;;;4936905;28;20043;-60
2023/09/20 12:53:19;;;;;;;0.00;0.00;;;;;;;;;;4936470;29;20032;-60
2023/09/20 12:55:45;;;;;;;0.00;0.00;;;;;;;;;;4939427;29;20039;-60
2023/09/20 12:58:13;;;;;;;0.00;0.00;;;;;;;;;;4939216;29;20046;-61
2023/09/20 13:00:39;;;;;;;0.00;0.00;;;;;;;;;;4939536;29;20093;-60
2023/09/20 13:03:07;;;;;;;0.00;0.00;;;;;;;;;;4937678;29;20070;-61
2023/09/20 13:05:32;;;;;;;0.00;0.00;;;;;;;;;;4939793;28;20474;-60
2023/09/20 13:07:59;;;;;;;0.00;0.00;;;;;;;;;;4935534;29;20102;-60
2023/09/20 13:10:25;;;;;;;0.00;0.00;;;;;;;;;;4938006;28;20143;-63
2023/09/20 13:12:50;;;;;;;0.00;0.00;;;;;;;;;;4933358;29;20070;-61
2023/09/20 13:15:17;;;;;;;0.00;0.00;;;;;;;;;;4943827;28;20501;-61
2023/09/20 13:17:44;;;;;;;0.00;0.00;;;;;;;;;;4946354;28;20031;-63
2023/09/20 13:20:10;;;;;;;0.00;0.00;;;;;;;;;;4940105;29;20094;-65
2023/09/20 13:22:36;;;;;;;0.00;0.00;;;;;;;;;;4942574;28;20044;-61
2023/09/20 13:25:03;;;;;;;0.00;0.00;;;;;;;;;;4937046;28;20093;-60
2023/09/20 13:27:28;;;;;;;0.00;0.00;;;;;;;;;;4937062;28;20078;-62
2023/09/20 13:29:54;;;;;;;0.00;0.00;;;;;;;;;;4936685;29;20114;-60
2023/09/20 13:32:19;;;;;;;0.00;0.00;;;;;;;;;;4940478;29;20306;-60
2023/09/20 13:34:45;;;;;;;0.00;0.00;;;;;;;;;;4939160;29;20430;-61
2023/09/20 13:37:12;;;;;;;0.00;0.00;;;;;;;;;;4938772;29;20086;-61
2023/09/20 13:39:42;;;;;;;0.00;0.00;;;;;;;;;;4938357;28;20488;-60
2023/09/20 13:42:08;;;;;;;0.00;0.00;;;;;;;;;;4934255;29;20035;-61
2023/09/20 13:44:34;;;;;;;0.00;0.00;;;;;;;;;;4936271;29;20042;-59
2023/09/20 13:47:04;;;;;;;0.00;0.00;;;;;;;;;;4936564;28;20028;-61
2023/09/20 13:49:30;;;;;;;0.00;0.00;;;;;;;;;;4937267;29;20122;-60
2023/09/20 13:51:55;;;;;;;0.00;0.00;;;;;;;;;;4941132;29;20114;-61
2023/09/20 13:54:21;;;;;;;0.00;0.00;;;;;;;;;;4942077;29;20727;-62
2023/09/20 13:56:46;;;;;;;0.00;0.00;;;;;;;;;;4940354;29;20553;-61
2023/09/20 13:59:11;;;;;;;0.00;0.00;;;;;;;;;;4939658;29;20042;-62
2023/09/20 14:01:39;;;;;;;0.00;0.00;;;;;;;;;;4942302;29;20988;-61
2023/09/20 14:04:04;;;;;;;0.00;0.00;;;;;;;;;;4940623;29;20047;-61
2023/09/20 14:06:29;;;;;;;0.00;0.00;;;;;;;;;;4941052;28;20031;-60
2023/09/20 14:08:55;;;;;;;0.00;0.00;;;;;;;;;;4942607;29;20059;-61
2023/09/20 14:11:22;;;;;;;0.00;0.00;;;;;;;;;;4945065;29;20809;-61
2023/09/20 14:13:48;;;;;;;0.00;0.00;;;;;;;;;;4940836;28;20051;-62
2023/09/20 14:16:14;;;;;;;0.00;0.00;;;;;;;;;;4940797;29;20409;-61
2023/09/20 14:18:40;;;;;;;0.00;0.00;;;;;;;;;;4939755;29;20042;-60
2023/09/20 14:21:05;;;;;;;0.00;0.00;;;;;;;;;;4943916;29;20035;-62
2023/09/20 14:23:31;;;;;;;0.00;0.00;;;;;;;;;;4942982;28;20367;-60
2023/09/20 14:25:56;;;;;;;0.00;0.00;;;;;;;;;;4939522;28;20042;-60
2023/09/20 14:28:22;;;;;;;0.00;0.00;;;;;;;;;;4940449;29;20040;-61
2023/09/20 14:30:47;;;;;;;0.00;0.00;;;;;;;;;;4942808;29;20067;-61
2023/09/20 14:33:12;;;;;;;0.00;0.00;;;;;;;;;;4938568;29;20039;-62
2023/09/20 14:35:38;;;;;;;0.00;0.00;;;;;;;;;;4945274;28;20110;-60
2023/09/20 14:38:04;;;;;;;0.00;0.00;;;;;;;;;;4940467;29;20051;-60
2023/09/20 14:40:29;;;;;;;0.00;0.00;;;;;;;;;;4941466;28;20079;-61
2023/09/20 14:42:55;;;;;;;0.00;0.00;;;;;;;;;;4939607;29;20035;-61
2023/09/20 14:45:22;;;;;;;0.00;0.00;;;;;;;;;;4940092;29;20075;-60
2023/09/20 14:47:51;;;;;;;0.00;0.00;;;;;;;;;;4941728;28;20035;-63
2023/09/20 14:50:17;;;;;;;0.00;0.00;;;;;;;;;;4939637;29;20089;-60
2023/09/20 14:52:44;;;;;;;0.00;0.00;;;;;;;;;;4929101;29;20090;-60
2023/09/20 14:55:10;;;;;;;0.00;0.00;;;;;;;;;;4941971;28;20039;-60
2023/09/20 14:57:35;;;;;;;0.00;0.00;;;;;;;;;;4941207;29;20043;-59
2023/09/20 15:00:03;;;;;;;0.00;0.00;;;;;;;;;;4939431;29;20040;-60
2023/09/20 15:02:29;;;;;;;0.00;0.00;;;;;;;;;;4942368;29;20093;-60
2023/09/20 15:04:54;;;;;;;0.00;0.00;;;;;;;;;;4935921;29;20618;-60
2023/09/20 15:07:20;;;;;;;0.00;0.00;;;;;;;;;;4942389;29;20046;-62
2023/09/20 15:09:46;;;;;;;0.00;0.00;;;;;;;;;;4942070;28;20039;-60
2023/09/20 15:12:15;;;;;;;0.00;0.00;;;;;;;;;;4946442;28;20043;-60
2023/09/20 15:14:42;;;;;;;0.00;0.00;;;;;;;;;;4938489;29;20031;-61
2023/09/20 15:17:08;;;;;;;0.00;0.00;;;;;;;;;;4940086;29;20058;-60
2023/09/20 15:19:33;;;;;;;0.00;0.00;;;;;;;;;;4940790;28;20123;-60
2023/09/20 15:21:59;;;;;;;0.00;0.00;;;;;;;;;;4931617;28;20130;-60
2023/09/20 15:24:24;;;;;;;0.00;0.00;;;;;;;;;;4932637;28;20043;-62